Time;durP1;ratioP1;P1;durP2;ratioP2;P2;SDS_P1;SDS_P2;PMS_P1;PMS_P2;Temp;Humidity;BMP_temperature;BMP_pressure;BME280_temperature;BME280_humidity;BME280_pressure;Samples;Min_cycle;Max_cycle;Signal;HPM_P1;HPM_P2
2022/08/02 00:00:47;;;;;;;22.75;7.20;;;;;;;;;;3332275;42;20085;-58
2022/08/02 00:03:14;;;;;;;22.52;7.32;;;;;;;;;;3331283;42;20089;-58
2022/08/02 00:05:40;;;;;;;20.27;6.85;;;;;;;;;;3327003;42;20084;-58
2022/08/02 00:08:06;;;;;;;19.73;6.50;;;;;;;;;;3319945;42;20149;-58
2022/08/02 00:10:32;;;;;;;21.98;6.32;;;;;;;;;;3330301;42;20081;-59
2022/08/02 00:12:58;;;;;;;20.15;6.70;;;;;;;;;;3327981;42;20093;-59
2022/08/02 00:15:25;;;;;;;17.77;6.97;;;;;;;;;;3331575;42;20096;-59
2022/08/02 00:17:51;;;;;;;21.33;7.22;;;;;;;;;;3328984;42;20096;-59
2022/08/02 00:20:17;;;;;;;18.43;6.07;;;;;;;;;;3331354;42;20088;-60
2022/08/02 00:22:43;;;;;;;20.15;6.45;;;;;;;;;;3335011;42;20188;-58
2022/08/02 00:25:09;;;;;;;15.52;6.30;;;;;;;;;;3330689;42;20703;-58
2022/08/02 00:27:36;;;;;;;18.90;6.50;;;;;;;;;;3321984;42;20085;-60
2022/08/02 00:30:02;;;;;;;18.90;5.90;;;;;;;;;;3335060;42;20172;-59
2022/08/02 00:32:28;;;;;;;16.27;5.90;;;;;;;;;;3338259;42;20560;-62
2022/08/02 00:34:55;;;;;;;17.45;5.97;;;;;;;;;;3327141;42;20147;-58
2022/08/02 00:37:21;;;;;;;14.68;5.20;;;;;;;;;;3331295;42;20104;-58
2022/08/02 00:39:47;;;;;;;15.18;4.93;;;;;;;;;;3334985;42;20144;-58
2022/08/02 00:42:14;;;;;;;14.25;4.93;;;;;;;;;;3330724;42;20089;-60
2022/08/02 00:44:40;;;;;;;10.37;4.37;;;;;;;;;;3315068;42;20136;-59
2022/08/02 00:47:07;;;;;;;14.60;4.80;;;;;;;;;;3333053;42;20140;-59
2022/08/02 00:49:33;;;;;;;13.80;4.80;;;;;;;;;;3336235;42;20109;-57
2022/08/02 00:51:59;;;;;;;15.68;4.90;;;;;;;;;;3334015;42;20586;-58
2022/08/02 00:54:26;;;;;;;14.93;5.15;;;;;;;;;;3320035;42;20159;-58
2022/08/02 00:56:52;;;;;;;15.17;5.47;;;;;;;;;;3332074;42;20627;-59
2022/08/02 00:59:18;;;;;;;13.65;4.50;;;;;;;;;;3331697;42;20610;-58
2022/08/02 01:01:44;;;;;;;9.77;4.13;;;;;;;;;;3335819;42;20085;-61
2022/08/02 01:04:12;;;;;;;12.60;4.30;;;;;;;;;;3322497;42;20096;-58
2022/08/02 01:06:39;;;;;;;12.32;4.53;;;;;;;;;;3328325;42;20101;-60
2022/08/02 01:09:05;;;;;;;9.73;3.80;;;;;;;;;;3333269;42;20515;-58
2022/08/02 01:11:32;;;;;;;14.13;5.05;;;;;;;;;;3333301;42;20106;-59
2022/08/02 01:14:07;;;;;;;11.57;4.35;;;;;;;;;;3312059;42;20153;-59
2022/08/02 01:16:40;;;;;;;9.98;4.20;;;;;;;;;;3321486;42;20089;-58
2022/08/02 01:19:32;;;;;;;17.35;5.10;;;;;;;;;;3313327;42;20081;-58
2022/08/02 01:22:23;;;;;;;11.63;4.83;;;;;;;;;;3309160;42;20103;-59
2022/08/02 01:24:55;;;;;;;14.20;4.55;;;;;;;;;;3315573;42;20093;-58
2022/08/02 01:27:54;;;;;;;12.02;4.55;;;;;;;;;;3328940;42;20163;-57
2022/08/02 01:30:20;;;;;;;10.48;4.30;;;;;;;;;;3318910;42;20089;-58
2022/08/02 01:32:49;;;;;;;11.20;4.53;;;;;;;;;;3338765;42;20177;-60
2022/08/02 01:35:22;;;;;;;8.80;4.20;;;;;;;;;;3327143;42;20081;-58
2022/08/02 01:37:49;;;;;;;12.15;4.10;;;;;;;;;;3327801;42;20089;-61
2022/08/02 01:40:25;;;;;;;11.60;4.40;;;;;;;;;;3331387;42;20089;-59
2022/08/02 01:42:53;;;;;;;10.77;4.35;;;;;;;;;;3326084;42;20093;-59
2022/08/02 01:45:19;;;;;;;9.75;3.88;;;;;;;;;;3327412;42;20085;-59
2022/08/02 01:47:46;;;;;;;9.23;3.83;;;;;;;;;;3338103;42;20085;-60
2022/08/02 01:50:14;;;;;;;10.50;4.03;;;;;;;;;;3314158;42;20088;-58
2022/08/02 01:52:44;;;;;;;10.75;4.28;;;;;;;;;;3325600;42;20093;-58
2022/08/02 01:55:12;;;;;;;10.75;4.05;;;;;;;;;;3317511;42;20159;-55
2022/08/02 01:57:54;;;;;;;8.25;3.80;;;;;;;;;;3324184;42;20134;-57
2022/08/02 02:00:22;;;;;;;9.43;4.00;;;;;;;;;;3320388;42;20092;-57
2022/08/02 02:02:48;;;;;;;10.32;3.70;;;;;;;;;;3324065;42;20089;-58
2022/08/02 02:05:16;;;;;;;9.63;3.95;;;;;;;;;;3330468;42;20195;-57
2022/08/02 02:07:43;;;;;;;8.45;4.00;;;;;;;;;;3325709;42;20100;-57
2022/08/02 02:10:11;;;;;;;9.45;4.10;;;;;;;;;;3327636;42;20093;-58
2022/08/02 02:12:38;;;;;;;9.77;3.70;;;;;;;;;;3320879;42;20096;-57
2022/08/02 02:15:05;;;;;;;8.88;3.80;;;;;;;;;;3332706;42;20089;-58
2022/08/02 02:17:31;;;;;;;9.25;4.00;;;;;;;;;;3323288;42;20097;-57
2022/08/02 02:19:57;;;;;;;11.27;3.78;;;;;;;;;;3317359;42;20089;-57
2022/08/02 02:22:24;;;;;;;8.93;4.13;;;;;;;;;;3329430;42;20093;-57
2022/08/02 02:24:50;;;;;;;8.50;3.27;;;;;;;;;;3329260;42;20081;-63
2022/08/02 02:27:16;;;;;;;10.55;3.65;;;;;;;;;;3331265;42;20108;-57
2022/08/02 02:29:43;;;;;;;8.77;3.60;;;;;;;;;;3329125;42;20104;-59
2022/08/02 02:32:10;;;;;;;10.98;3.72;;;;;;;;;;3312326;42;20095;-58
2022/08/02 02:34:41;;;;;;;10.23;3.70;;;;;;;;;;3331063;42;20112;-57
2022/08/02 02:37:15;;;;;;;7.60;3.43;;;;;;;;;;3314032;42;20095;-60
2022/08/02 02:39:41;;;;;;;9.57;4.00;;;;;;;;;;3321521;42;20160;-57
2022/08/02 02:42:09;;;;;;;10.65;3.95;;;;;;;;;;3315515;42;20081;-58
2022/08/02 02:44:35;;;;;;;7.55;3.60;;;;;;;;;;3327486;42;20100;-58
2022/08/02 02:47:01;;;;;;;8.02;3.40;;;;;;;;;;3324465;42;20166;-58
2022/08/02 02:49:28;;;;;;;17.63;4.30;;;;;;;;;;3329437;42;20099;-56
2022/08/02 02:51:54;;;;;;;10.60;3.65;;;;;;;;;;3312449;42;20088;-57
2022/08/02 02:54:20;;;;;;;10.77;3.67;;;;;;;;;;3328387;42;20089;-56
2022/08/02 02:56:46;;;;;;;12.00;3.72;;;;;;;;;;3324272;42;20085;-57
2022/08/02 02:59:14;;;;;;;9.05;3.60;;;;;;;;;;3313381;42;20085;-56
2022/08/02 03:01:40;;;;;;;7.43;3.30;;;;;;;;;;3321878;42;20108;-56
2022/08/02 03:04:08;;;;;;;7.40;3.67;;;;;;;;;;3321033;42;20120;-55
2022/08/02 03:06:38;;;;;;;8.57;3.67;;;;;;;;;;3329876;42;20097;-59
2022/08/02 03:09:05;;;;;;;9.77;3.60;;;;;;;;;;3325703;42;20231;-58
2022/08/02 03:11:31;;;;;;;6.60;3.40;;;;;;;;;;3329838;42;20089;-58
2022/08/02 03:14:01;;;;;;;8.57;4.00;;;;;;;;;;3324708;42;20089;-57
2022/08/02 03:16:28;;;;;;;7.55;3.40;;;;;;;;;;3335488;42;20568;-55
2022/08/02 03:18:55;;;;;;;10.05;3.50;;;;;;;;;;3336838;42;20167;-59
2022/08/02 03:21:21;;;;;;;10.38;3.38;;;;;;;;;;3327869;42;20093;-58
2022/08/02 03:23:47;;;;;;;6.47;3.28;;;;;;;;;;3329058;42;20093;-58
2022/08/02 03:26:14;;;;;;;6.93;3.47;;;;;;;;;;3325349;42;20092;-58
2022/08/02 03:28:40;;;;;;;8.00;3.38;;;;;;;;;;3328556;42;20116;-58
2022/08/02 03:31:07;;;;;;;11.15;3.60;;;;;;;;;;3332433;42;20093;-59
2022/08/02 03:33:33;;;;;;;7.68;3.22;;;;;;;;;;3331726;42;20570;-57
2022/08/02 03:36:02;;;;;;;7.63;3.35;;;;;;;;;;3334977;42;20108;-59
2022/08/02 03:38:29;;;;;;;7.93;3.67;;;;;;;;;;3326478;42;20089;-58
2022/08/02 03:40:56;;;;;;;8.88;3.70;;;;;;;;;;3323635;42;20089;-57
2022/08/02 03:43:22;;;;;;;12.10;4.20;;;;;;;;;;3323012;42;20124;-58
2022/08/02 03:45:49;;;;;;;15.32;6.00;;;;;;;;;;3332707;42;20095;-55
2022/08/02 03:48:15;;;;;;;13.60;4.63;;;;;;;;;;3321144;42;20096;-59
2022/08/02 03:50:41;;;;;;;14.40;5.63;;;;;;;;;;3332625;42;20164;-56
2022/08/02 03:53:08;;;;;;;16.48;5.50;;;;;;;;;;3338530;42;20104;-58
2022/08/02 03:55:34;;;;;;;12.63;5.20;;;;;;;;;;3329243;42;20101;-57
2022/08/02 03:58:01;;;;;;;12.32;5.03;;;;;;;;;;3331670;42;20562;-58
2022/08/02 04:00:27;;;;;;;14.65;5.60;;;;;;;;;;3332904;42;20099;-60
2022/08/02 04:02:53;;;;;;;14.93;5.83;;;;;;;;;;3334765;42;20160;-58
2022/08/02 04:05:19;;;;;;;16.85;6.45;;;;;;;;;;3334102;42;20097;-58
2022/08/02 04:07:47;;;;;;;14.10;5.38;;;;;;;;;;3335723;42;20109;-61
2022/08/02 04:10:14;;;;;;;11.10;5.07;;;;;;;;;;3333595;42;20514;-60
2022/08/02 04:12:40;;;;;;;18.73;6.70;;;;;;;;;;3337316;42;20606;-57
2022/08/02 04:15:07;;;;;;;14.83;6.23;;;;;;;;;;3335132;42;20100;-55
2022/08/02 04:17:36;;;;;;;17.02;6.68;;;;;;;;;;3324442;42;20140;-57
2022/08/02 04:20:23;;;;;;;17.42;7.55;;;;;;;;;;3325545;42;20096;-56
2022/08/02 04:23:06;;;;;;;23.92;7.85;;;;;;;;;;3326636;42;20615;-56
2022/08/02 04:25:33;;;;;;;12.75;5.57;;;;;;;;;;3329465;42;20100;-59
2022/08/02 04:27:59;;;;;;;18.13;7.03;;;;;;;;;;3316477;42;20623;-57
2022/08/02 04:30:26;;;;;;;28.55;11.30;;;;;;;;;;3316790;42;20085;-58
2022/08/02 04:32:52;;;;;;;25.52;9.90;;;;;;;;;;3311703;42;20108;-57
2022/08/02 04:35:18;;;;;;;19.77;6.63;;;;;;;;;;3317818;42;20089;-57
2022/08/02 04:37:44;;;;;;;16.05;5.60;;;;;;;;;;3314433;42;20100;-57
2022/08/02 04:40:11;;;;;;;11.07;4.70;;;;;;;;;;3339646;42;20080;-56
2022/08/02 04:42:37;;;;;;;9.25;3.88;;;;;;;;;;3327757;42;20093;-58
2022/08/02 04:45:05;;;;;;;12.15;4.60;;;;;;;;;;3335849;42;20096;-59
2022/08/02 04:47:31;;;;;;;10.55;3.95;;;;;;;;;;3335925;42;20154;-59
2022/08/02 04:49:57;;;;;;;9.80;4.30;;;;;;;;;;3321640;42;20526;-58
2022/08/02 04:52:24;;;;;;;10.00;4.17;;;;;;;;;;3324679;42;20089;-58
2022/08/02 04:54:50;;;;;;;10.50;4.13;;;;;;;;;;3329074;42;20088;-58
2022/08/02 05:00:02;;;;;;;10.95;4.40;;;;;;;;;;3321370;42;20089;-59
2022/08/02 05:02:28;;;;;;;11.82;4.90;;;;;;;;;;3330032;42;20101;-58
2022/08/02 05:04:54;;;;;;;8.20;4.40;;;;;;;;;;3328311;42;20579;-60
2022/08/02 05:07:20;;;;;;;10.60;4.63;;;;;;;;;;3336909;42;20089;-58
2022/08/02 05:09:47;;;;;;;11.00;5.22;;;;;;;;;;3335522;42;20152;-58
2022/08/02 05:12:13;;;;;;;8.20;4.70;;;;;;;;;;3327930;42;20544;-60
2022/08/02 05:14:39;;;;;;;9.00;4.80;;;;;;;;;;3327265;42;20112;-58
2022/08/02 05:17:05;;;;;;;10.93;5.00;;;;;;;;;;3327793;42;20093;-58
2022/08/02 05:19:32;;;;;;;8.52;5.00;;;;;;;;;;3326503;42;20080;-58
2022/08/02 05:21:58;;;;;;;9.98;5.45;;;;;;;;;;3329049;42;20107;-58
2022/08/02 05:24:24;;;;;;;9.38;5.03;;;;;;;;;;3328496;42;20099;-59
2022/08/02 05:26:50;;;;;;;10.18;5.20;;;;;;;;;;3326408;42;20108;-58
2022/08/02 05:29:16;;;;;;;12.27;5.67;;;;;;;;;;3336926;42;20085;-58
2022/08/02 05:31:44;;;;;;;12.00;5.90;;;;;;;;;;3324704;42;20111;-58
2022/08/02 05:34:10;;;;;;;13.45;7.25;;;;;;;;;;3333358;42;20793;-58
2022/08/02 05:36:37;;;;;;;10.82;5.97;;;;;;;;;;3332958;42;20559;-58
2022/08/02 05:39:03;;;;;;;13.85;7.75;;;;;;;;;;3335899;42;20547;-57
2022/08/02 05:41:29;;;;;;;12.33;6.37;;;;;;;;;;3335748;42;20563;-59
2022/08/02 05:43:55;;;;;;;11.10;6.40;;;;;;;;;;3330080;42;20096;-58
2022/08/02 05:46:21;;;;;;;11.18;6.07;;;;;;;;;;3326331;42;20580;-58
2022/08/02 05:48:47;;;;;;;15.18;6.95;;;;;;;;;;3328151;42;20538;-58
2022/08/02 05:51:27;;;;;;;11.55;6.78;;;;;;;;;;3336628;42;20089;-58
2022/08/02 05:54:18;;;;;;;11.00;6.87;;;;;;;;;;3328873;42;20107;-57
2022/08/02 05:57:04;;;;;;;12.68;7.40;;;;;;;;;;3333589;42;20081;-59
2022/08/02 05:59:47;;;;;;;13.10;7.40;;;;;;;;;;3326418;42;20085;-58
2022/08/02 06:02:27;;;;;;;12.32;7.10;;;;;;;;;;3317882;42;20093;-56
2022/08/02 06:04:58;;;;;;;11.85;7.05;;;;;;;;;;3320488;42;20101;-58
2022/08/02 06:07:24;;;;;;;11.87;7.27;;;;;;;;;;3325722;42;20088;-58
2022/08/02 06:09:50;;;;;;;12.65;6.72;;;;;;;;;;3337867;42;20085;-57
2022/08/02 06:12:17;;;;;;;12.02;6.90;;;;;;;;;;3319124;42;20099;-59
2022/08/02 06:14:43;;;;;;;11.25;6.82;;;;;;;;;;3317949;42;20638;-58
2022/08/02 06:17:09;;;;;;;11.27;6.68;;;;;;;;;;3311301;42;20088;-58
2022/08/02 06:19:36;;;;;;;12.77;7.50;;;;;;;;;;3333924;42;20081;-58
2022/08/02 06:22:13;;;;;;;11.93;6.70;;;;;;;;;;3314959;42;20084;-57
2022/08/02 06:24:46;;;;;;;14.15;7.40;;;;;;;;;;3326241;42;20135;-58
2022/08/02 06:27:13;;;;;;;16.35;7.18;;;;;;;;;;3315605;42;20751;-62
2022/08/02 06:29:42;;;;;;;12.45;6.85;;;;;;;;;;3324363;42;20543;-58
2022/08/02 06:32:09;;;;;;;11.70;6.67;;;;;;;;;;3324244;42;20159;-58
2022/08/02 06:34:38;;;;;;;11.73;7.40;;;;;;;;;;3327349;42;20880;-57
2022/08/02 06:37:14;;;;;;;12.77;7.70;;;;;;;;;;3333886;42;20132;-58
2022/08/02 06:39:45;;;;;;;11.60;7.20;;;;;;;;;;3326860;42;20093;-60
2022/08/02 06:42:14;;;;;;;12.75;7.10;;;;;;;;;;3324544;42;20575;-59
2022/08/02 06:44:40;;;;;;;12.33;7.03;;;;;;;;;;3329605;42;20093;-58
2022/08/02 06:47:06;;;;;;;12.43;7.93;;;;;;;;;;3326437;42;20105;-58
2022/08/02 06:49:33;;;;;;;13.43;8.02;;;;;;;;;;3324436;42;20132;-57
2022/08/02 06:51:59;;;;;;;13.27;8.57;;;;;;;;;;3314972;42;20104;-59
2022/08/02 06:54:25;;;;;;;12.98;7.68;;;;;;;;;;3323968;42;20093;-57
2022/08/02 06:56:51;;;;;;;13.67;8.20;;;;;;;;;;3327987;42;20649;-57
2022/08/02 06:59:18;;;;;;;14.40;8.13;;;;;;;;;;3330182;42;20649;-57
2022/08/02 07:01:44;;;;;;;13.13;8.50;;;;;;;;;;3329731;42;20107;-57
2022/08/02 07:04:10;;;;;;;14.77;8.32;;;;;;;;;;3330177;42;20152;-57
2022/08/02 07:06:36;;;;;;;13.02;7.88;;;;;;;;;;3331979;42;20167;-56
2022/08/02 07:09:02;;;;;;;13.80;8.63;;;;;;;;;;3325395;42;20108;-57
2022/08/02 07:11:28;;;;;;;15.55;8.45;;;;;;;;;;3330959;42;21042;-57
2022/08/02 07:13:55;;;;;;;15.68;8.57;;;;;;;;;;3328802;42;20096;-60
2022/08/02 07:16:21;;;;;;;14.25;8.85;;;;;;;;;;3329898;42;20111;-57
2022/08/02 07:18:47;;;;;;;15.63;8.25;;;;;;;;;;3338462;42;20092;-56
2022/08/02 07:21:13;;;;;;;14.50;8.80;;;;;;;;;;3336111;42;20708;-59
2022/08/02 07:23:39;;;;;;;15.27;8.82;;;;;;;;;;3327856;42;20089;-59
2022/08/02 07:26:05;;;;;;;14.57;8.75;;;;;;;;;;3332430;42;21046;-58
2022/08/02 07:28:33;;;;;;;14.80;9.15;;;;;;;;;;3344876;42;20100;-58
2022/08/02 07:30:59;;;;;;;16.02;9.13;;;;;;;;;;3329800;42;20108;-59
2022/08/02 07:33:26;;;;;;;16.10;9.30;;;;;;;;;;3320939;42;20093;-59
2022/08/02 07:35:52;;;;;;;15.80;8.75;;;;;;;;;;3326370;42;20128;-57
2022/08/02 07:38:21;;;;;;;17.65;10.98;;;;;;;;;;3330272;42;20096;-59
2022/08/02 07:40:47;;;;;;;18.33;9.45;;;;;;;;;;3329456;42;20104;-59
2022/08/02 07:43:14;;;;;;;15.30;8.50;;;;;;;;;;3337865;42;20092;-59
2022/08/02 07:45:40;;;;;;;15.10;8.33;;;;;;;;;;3331269;42;20093;-59
2022/08/02 07:48:07;;;;;;;14.80;8.77;;;;;;;;;;3323741;42;20097;-59
2022/08/02 07:50:33;;;;;;;16.00;8.80;;;;;;;;;;3331452;42;20637;-58
2022/08/02 07:52:59;;;;;;;15.63;8.75;;;;;;;;;;3318906;42;20085;-57
2022/08/02 07:55:25;;;;;;;15.40;9.02;;;;;;;;;;3321281;42;20092;-59
2022/08/02 07:57:52;;;;;;;15.90;8.67;;;;;;;;;;3327039;42;20101;-60
2022/08/02 08:00:18;;;;;;;16.35;8.82;;;;;;;;;;3331967;42;20559;-57
2022/08/02 08:02:45;;;;;;;15.95;9.13;;;;;;;;;;3327736;42;20106;-58
2022/08/02 08:05:11;;;;;;;15.43;8.90;;;;;;;;;;3321951;42;20107;-56
2022/08/02 08:07:37;;;;;;;14.98;8.27;;;;;;;;;;3335218;42;20113;-55
2022/08/02 08:10:04;;;;;;;15.40;9.00;;;;;;;;;;3332254;42;20164;-58
2022/08/02 08:12:31;;;;;;;15.73;9.30;;;;;;;;;;3329564;42;20093;-57
2022/08/02 08:14:57;;;;;;;14.95;9.27;;;;;;;;;;3330905;42;20176;-57
2022/08/02 08:17:23;;;;;;;14.27;8.85;;;;;;;;;;3325940;42;20124;-56
2022/08/02 08:19:49;;;;;;;15.02;8.65;;;;;;;;;;3326489;42;20084;-56
2022/08/02 08:22:15;;;;;;;16.67;9.23;;;;;;;;;;3331011;42;20144;-57
2022/08/02 08:24:42;;;;;;;15.60;9.10;;;;;;;;;;3321078;42;20563;-55
2022/08/02 08:27:13;;;;;;;15.40;9.05;;;;;;;;;;3332648;42;20112;-56
2022/08/02 08:29:42;;;;;;;15.98;9.65;;;;;;;;;;3328584;42;20127;-56
2022/08/02 08:32:09;;;;;;;15.60;9.20;;;;;;;;;;3333324;42;20096;-56
2022/08/02 08:34:35;;;;;;;18.03;9.23;;;;;;;;;;3330074;42;20086;-56
2022/08/02 08:37:02;;;;;;;14.02;8.93;;;;;;;;;;3324665;42;20111;-57
2022/08/02 08:39:29;;;;;;;16.08;9.40;;;;;;;;;;3337107;42;20605;-56
2022/08/02 08:41:55;;;;;;;14.68;9.35;;;;;;;;;;3327736;42;20523;-57
2022/08/02 08:44:21;;;;;;;15.25;8.90;;;;;;;;;;3329171;42;20085;-58
2022/08/02 08:46:48;;;;;;;14.37;8.90;;;;;;;;;;3328638;42;20480;-59
2022/08/02 08:49:24;;;;;;;17.20;9.82;;;;;;;;;;3329549;42;20148;-59
2022/08/02 08:51:52;;;;;;;16.30;9.38;;;;;;;;;;3325766;42;20096;-57
2022/08/02 08:54:18;;;;;;;15.10;8.85;;;;;;;;;;3324240;42;20093;-57
2022/08/02 08:56:44;;;;;;;15.07;9.02;;;;;;;;;;3324547;42;20085;-59
2022/08/02 08:59:11;;;;;;;18.90;9.13;;;;;;;;;;3325790;42;20100;-58
2022/08/02 09:01:37;;;;;;;15.20;9.20;;;;;;;;;;3332444;42;20167;-58
2022/08/02 09:04:03;;;;;;;17.60;9.05;;;;;;;;;;3325632;42;20093;-58
2022/08/02 09:06:29;;;;;;;15.02;9.02;;;;;;;;;;3333083;42;20085;-59
2022/08/02 09:08:55;;;;;;;16.60;9.43;;;;;;;;;;3333248;42;20545;-58
2022/08/02 09:11:23;;;;;;;14.63;7.87;;;;;;;;;;3325800;42;20551;-58
2022/08/02 09:13:53;;;;;;;15.25;8.40;;;;;;;;;;3330987;42;20097;-59
2022/08/02 09:16:31;;;;;;;14.30;8.38;;;;;;;;;;3329897;42;20093;-59
2022/08/02 09:18:57;;;;;;;14.63;8.63;;;;;;;;;;3324731;42;20093;-60
2022/08/02 09:21:23;;;;;;;14.65;8.63;;;;;;;;;;3329531;42;20164;-58
2022/08/02 09:23:50;;;;;;;15.10;8.90;;;;;;;;;;3320005;42;20569;-58
2022/08/02 09:26:18;;;;;;;13.10;7.85;;;;;;;;;;3318845;42;20152;-59
2022/08/02 09:28:46;;;;;;;14.52;7.88;;;;;;;;;;3322313;42;20096;-59
2022/08/02 09:31:14;;;;;;;16.48;8.25;;;;;;;;;;3329798;42;20103;-59
2022/08/02 09:33:41;;;;;;;14.90;8.65;;;;;;;;;;3336105;42;20108;-60
2022/08/02 09:36:12;;;;;;;15.37;8.37;;;;;;;;;;3329204;42;20114;-58
2022/08/02 09:38:39;;;;;;;15.10;7.85;;;;;;;;;;3326920;42;20107;-59
2022/08/02 09:41:06;;;;;;;15.00;8.15;;;;;;;;;;3319052;42;20112;-58
2022/08/02 09:43:42;;;;;;;12.85;7.13;;;;;;;;;;3328260;42;20140;-58
2022/08/02 09:46:16;;;;;;;14.48;8.38;;;;;;;;;;3327211;42;20546;-57
2022/08/02 09:49:02;;;;;;;13.33;7.87;;;;;;;;;;3330221;42;20089;-58
2022/08/02 09:51:30;;;;;;;16.35;7.55;;;;;;;;;;3316975;42;20160;-58
2022/08/02 09:53:57;;;;;;;17.90;7.97;;;;;;;;;;3323397;42;20116;-55
2022/08/02 09:56:24;;;;;;;13.68;7.45;;;;;;;;;;3322037;42;20183;-56
2022/08/02 09:58:52;;;;;;;15.48;7.30;;;;;;;;;;3335187;42;20093;-55
2022/08/02 10:01:20;;;;;;;15.17;8.40;;;;;;;;;;3334219;42;20728;-57
2022/08/02 10:04:00;;;;;;;13.98;7.85;;;;;;;;;;3322542;42;20103;-56
2022/08/02 10:06:27;;;;;;;13.75;7.15;;;;;;;;;;3327405;42;20084;-57
2022/08/02 10:08:53;;;;;;;12.73;7.43;;;;;;;;;;3327047;42;20093;-57
2022/08/02 10:11:23;;;;;;;14.60;8.10;;;;;;;;;;3327219;42;20584;-56
2022/08/02 10:13:49;;;;;;;15.00;7.10;;;;;;;;;;3326947;42;20181;-58
2022/08/02 10:16:18;;;;;;;16.50;7.30;;;;;;;;;;3327758;42;20164;-55
2022/08/02 10:18:44;;;;;;;15.55;7.40;;;;;;;;;;3329742;42;20559;-56
2022/08/02 10:21:15;;;;;;;10.82;6.68;;;;;;;;;;3326453;42;20093;-55
2022/08/02 10:23:42;;;;;;;13.68;7.10;;;;;;;;;;3327870;42;20178;-57
2022/08/02 10:26:08;;;;;;;13.17;6.97;;;;;;;;;;3336081;42;20140;-55
2022/08/02 10:28:35;;;;;;;15.57;7.40;;;;;;;;;;3321919;42;20650;-56
2022/08/02 10:31:02;;;;;;;17.45;7.65;;;;;;;;;;3327494;42;20103;-55
2022/08/02 10:33:29;;;;;;;17.58;6.85;;;;;;;;;;3325195;42;20112;-56
2022/08/02 10:35:58;;;;;;;13.55;7.40;;;;;;;;;;3325477;42;20115;-56
2022/08/02 10:38:24;;;;;;;12.07;6.70;;;;;;;;;;3320208;42;20096;-56
2022/08/02 10:40:52;;;;;;;14.45;7.07;;;;;;;;;;3318650;42;20107;-52
2022/08/02 10:43:31;;;;;;;12.93;7.05;;;;;;;;;;3326983;42;20591;-57
2022/08/02 10:46:35;;;;;;;16.35;7.38;;;;;;;;;;3333315;42;20085;-57
2022/08/02 10:49:14;;;;;;;11.27;6.57;;;;;;;;;;3326684;42;20108;-54
2022/08/02 10:51:59;;;;;;;13.97;7.50;;;;;;;;;;3334912;42;20080;-56
2022/08/02 10:54:31;;;;;;;11.95;7.00;;;;;;;;;;3328062;42;20097;-53
2022/08/02 10:56:58;;;;;;;15.65;7.82;;;;;;;;;;3327842;42;20103;-55
2022/08/02 10:59:34;;;;;;;17.98;8.73;;;;;;;;;;3325160;42;20092;-56
2022/08/02 11:02:01;;;;;;;17.88;9.18;;;;;;;;;;3326390;42;20093;-57
2022/08/02 11:04:36;;;;;;;13.53;7.80;;;;;;;;;;3323190;42;20100;-56
2022/08/02 11:07:13;;;;;;;12.77;7.07;;;;;;;;;;3334387;42;20124;-58
2022/08/02 11:09:43;;;;;;;11.77;6.82;;;;;;;;;;3327989;42;20093;-53
2022/08/02 11:12:12;;;;;;;15.35;7.03;;;;;;;;;;3330770;42;20159;-55
2022/08/02 11:14:42;;;;;;;13.27;7.10;;;;;;;;;;3325253;42;20093;-57
2022/08/02 11:17:10;;;;;;;12.73;6.83;;;;;;;;;;3327615;42;20101;-55
2022/08/02 11:20:12;;;;;;;12.73;7.15;;;;;;;;;;3328604;42;20088;-56
2022/08/02 11:22:39;;;;;;;13.38;7.15;;;;;;;;;;3337718;42;20148;-56
2022/08/02 11:25:34;;;;;;;14.20;7.22;;;;;;;;;;3325013;42;20843;-53
2022/08/02 11:28:08;;;;;;;12.35;7.07;;;;;;;;;;3325582;42;20081;-53
2022/08/02 11:30:35;;;;;;;11.97;7.03;;;;;;;;;;3337269;42;20109;-57
2022/08/02 11:33:01;;;;;;;12.75;6.95;;;;;;;;;;3331197;42;20100;-56
2022/08/02 11:35:36;;;;;;;15.15;7.53;;;;;;;;;;3329263;42;20573;-56
2022/08/02 11:38:18;;;;;;;12.30;7.15;;;;;;;;;;3331571;42;20109;-58
2022/08/02 11:40:45;;;;;;;14.85;7.70;;;;;;;;;;3330582;42;20124;-59
2022/08/02 11:43:16;;;;;;;16.37;7.20;;;;;;;;;;3326456;42;20196;-56
2022/08/02 11:45:42;;;;;;;13.20;7.22;;;;;;;;;;3327158;42;20626;-56
2022/08/02 11:48:08;;;;;;;14.52;7.70;;;;;;;;;;3330389;42;20575;-56
2022/08/02 11:50:34;;;;;;;13.10;7.40;;;;;;;;;;3321492;42;20127;-56
2022/08/02 11:53:00;;;;;;;13.18;7.40;;;;;;;;;;3329015;42;20108;-56
2022/08/02 11:55:28;;;;;;;15.33;7.40;;;;;;;;;;3332359;42;20085;-58
2022/08/02 11:58:02;;;;;;;18.40;7.25;;;;;;;;;;3331231;42;20171;-54
2022/08/02 12:00:28;;;;;;;14.05;7.60;;;;;;;;;;3326306;42;20084;-57
2022/08/02 12:02:54;;;;;;;13.30;7.07;;;;;;;;;;3329338;42;20100;-55
2022/08/02 12:05:22;;;;;;;13.05;7.15;;;;;;;;;;3324412;42;20555;-56
2022/08/02 12:07:49;;;;;;;14.33;6.50;;;;;;;;;;3327656;42;20101;-55
2022/08/02 12:10:17;;;;;;;14.35;7.55;;;;;;;;;;3327343;42;20093;-57
2022/08/02 12:12:47;;;;;;;13.32;7.22;;;;;;;;;;3332324;42;20174;-58
2022/08/02 12:15:14;;;;;;;13.80;7.82;;;;;;;;;;3338130;42;20112;-57
2022/08/02 12:20:36;;;;;;;16.40;8.27;;;;;;;;;;3331183;42;20103;-56
2022/08/02 12:23:02;;;;;;;15.23;7.40;;;;;;;;;;3341553;42;20571;-55
2022/08/02 12:25:30;;;;;;;13.10;7.80;;;;;;;;;;3331956;42;20108;-56
2022/08/02 12:28:16;;;;;;;13.52;7.35;;;;;;;;;;3327318;42;20085;-55
2022/08/02 12:30:52;;;;;;;13.35;7.20;;;;;;;;;;3326335;42;20085;-53
2022/08/02 12:33:20;;;;;;;13.50;7.20;;;;;;;;;;3335171;42;20645;-53
2022/08/02 12:35:46;;;;;;;12.70;6.82;;;;;;;;;;3330087;42;20206;-54
2022/08/02 12:38:12;;;;;;;13.05;7.07;;;;;;;;;;3329705;42;20172;-54
2022/08/02 12:40:38;;;;;;;13.45;6.78;;;;;;;;;;3330568;42;20093;-53
2022/08/02 12:43:05;;;;;;;15.60;7.40;;;;;;;;;;3335896;42;20084;-56
2022/08/02 12:45:45;;;;;;;11.60;6.53;;;;;;;;;;3326029;42;20982;-52
2022/08/02 12:48:11;;;;;;;11.82;5.97;;;;;;;;;;3318814;42;20502;-49
2022/08/02 12:50:38;;;;;;;10.95;6.30;;;;;;;;;;3324797;42;20164;-49
2022/08/02 12:53:17;;;;;;;14.60;6.88;;;;;;;;;;3334894;42;20645;-53
2022/08/02 12:55:50;;;;;;;13.05;6.78;;;;;;;;;;3332391;42;20104;-52
2022/08/02 12:58:17;;;;;;;12.20;6.63;;;;;;;;;;3344466;42;20199;-54
2022/08/02 13:00:49;;;;;;;11.05;6.75;;;;;;;;;;3325926;42;20152;-54
2022/08/02 13:03:16;;;;;;;14.00;7.13;;;;;;;;;;3325473;42;20096;-56
2022/08/02 13:05:42;;;;;;;15.55;7.43;;;;;;;;;;3326439;42;20101;-52
2022/08/02 13:08:08;;;;;;;13.38;7.20;;;;;;;;;;3328282;42;20628;-51
2022/08/02 13:10:35;;;;;;;11.87;6.93;;;;;;;;;;3323793;42;20152;-50
2022/08/02 13:13:01;;;;;;;14.30;7.07;;;;;;;;;;3330069;42;20506;-53
2022/08/02 13:15:27;;;;;;;12.45;6.20;;;;;;;;;;3327180;42;20124;-51
2022/08/02 13:17:53;;;;;;;11.20;5.85;;;;;;;;;;3336004;42;20171;-52
2022/08/02 13:20:19;;;;;;;11.27;6.10;;;;;;;;;;3325610;42;20108;-51
2022/08/02 13:22:46;;;;;;;11.60;6.17;;;;;;;;;;3328454;42;20144;-54
2022/08/02 13:25:12;;;;;;;10.90;5.82;;;;;;;;;;3326335;42;20509;-53
2022/08/02 13:27:38;;;;;;;12.65;6.43;;;;;;;;;;3327159;42;20093;-55
2022/08/02 13:30:06;;;;;;;12.40;6.53;;;;;;;;;;3332019;42;20100;-53
2022/08/02 13:32:32;;;;;;;13.15;6.25;;;;;;;;;;3331037;42;20187;-56
2022/08/02 13:34:58;;;;;;;15.30;7.23;;;;;;;;;;3325470;42;20727;-51
2022/08/02 13:37:25;;;;;;;13.10;6.28;;;;;;;;;;3329823;42;20151;-53
2022/08/02 13:39:51;;;;;;;12.13;6.88;;;;;;;;;;3333122;42;20121;-54
2022/08/02 13:42:17;;;;;;;13.82;7.00;;;;;;;;;;3332275;42;20153;-53
2022/08/02 13:44:43;;;;;;;13.40;6.95;;;;;;;;;;3332148;42;20601;-54
2022/08/02 13:47:10;;;;;;;13.57;7.53;;;;;;;;;;3324997;42;20513;-52
2022/08/02 13:49:40;;;;;;;14.38;7.93;;;;;;;;;;3330127;42;20084;-53
2022/08/02 13:52:06;;;;;;;18.33;7.97;;;;;;;;;;3324146;42;20103;-53
2022/08/02 13:54:32;;;;;;;16.52;8.00;;;;;;;;;;3329354;42;20144;-51
2022/08/02 13:56:59;;;;;;;15.93;8.02;;;;;;;;;;3328858;42;20088;-54
2022/08/02 13:59:25;;;;;;;17.37;8.10;;;;;;;;;;3329628;42;20097;-53
2022/08/02 14:01:52;;;;;;;18.80;8.50;;;;;;;;;;3330584;42;20092;-55
2022/08/02 14:04:18;;;;;;;18.75;8.93;;;;;;;;;;3332895;42;20654;-54
2022/08/02 14:06:45;;;;;;;19.88;9.90;;;;;;;;;;3325510;42;20092;-51
2022/08/02 14:09:11;;;;;;;22.00;10.52;;;;;;;;;;3327677;42;20105;-54
2022/08/02 14:11:38;;;;;;;23.63;9.40;;;;;;;;;;3328572;42;20100;-54
2022/08/02 14:14:04;;;;;;;21.80;9.38;;;;;;;;;;3335405;42;20104;-51
2022/08/02 14:16:31;;;;;;;17.02;8.20;;;;;;;;;;3329211;42;20096;-51
2022/08/02 14:18:57;;;;;;;15.98;8.30;;;;;;;;;;3324034;42;20101;-51
2022/08/02 14:21:23;;;;;;;15.50;8.48;;;;;;;;;;3331340;42;20167;-50
2022/08/02 14:23:49;;;;;;;13.43;8.07;;;;;;;;;;3333652;42;20097;-52
2022/08/02 14:26:15;;;;;;;15.45;7.95;;;;;;;;;;3329335;42;20657;-52
2022/08/02 14:28:42;;;;;;;14.32;7.72;;;;;;;;;;3330122;42;20107;-53
2022/08/02 14:31:08;;;;;;;15.40;7.70;;;;;;;;;;3330428;42;20111;-53
2022/08/02 14:33:34;;;;;;;12.25;7.15;;;;;;;;;;3332164;42;20144;-54
2022/08/02 14:36:01;;;;;;;13.43;7.70;;;;;;;;;;3328625;42;20510;-53
2022/08/02 14:38:28;;;;;;;13.15;8.18;;;;;;;;;;3328652;42;20177;-53
2022/08/02 14:40:55;;;;;;;14.18;8.30;;;;;;;;;;3321791;42;20104;-51
2022/08/02 14:46:05;;;;;;;14.00;7.78;;;;;;;;;;3339862;42;20978;-53